createdAt,value
2022-08-18T00:00:40.748Z,18.34
2022-08-18T00:05:42.822Z,18.31
2022-08-18T00:10:44.351Z,18.35
2022-08-18T00:15:48.737Z,18.37
2022-08-18T00:20:47.362Z,18.34
2022-08-18T00:25:48.586Z,18.32
2022-08-18T00:30:54.105Z,18.31
2022-08-18T00:35:51.876Z,18.32
2022-08-18T00:40:53.538Z,18.33
2022-08-18T00:45:55.104Z,18.35
2022-08-18T00:50:56.690Z,18.34
2022-08-18T00:55:58.597Z,18.32
2022-08-18T01:01:00.097Z,18.32
2022-08-18T01:06:02.053Z,18.29
2022-08-18T01:11:03.308Z,18.25
2022-08-18T01:16:05.002Z,18.21
2022-08-18T01:21:06.225Z,18.23
2022-08-18T01:26:08.339Z,18.23
2022-08-18T01:31:10.344Z,18.17
2022-08-18T01:36:12.359Z,18.14
2022-08-18T01:41:25.363Z,18.12
2022-08-18T01:46:16.007Z,18.12
2022-08-18T01:51:17.818Z,18.09
2022-08-18T01:56:19.041Z,18.04
2022-08-18T02:01:20.352Z,18.01
2022-08-18T02:06:32.094Z,17.98
2022-08-18T02:11:24.081Z,17.92
2022-08-18T02:16:26.033Z,17.85
2022-08-18T02:21:27.575Z,17.78
2022-08-18T02:26:29.677Z,17.73
2022-08-18T02:31:31.248Z,17.67
2022-08-18T02:36:33.183Z,17.6
2022-08-18T02:41:35.348Z,17.54
2022-08-18T02:46:36.585Z,17.37
2022-08-18T02:51:38.235Z,17.34
2022-08-18T02:56:42.345Z,17.32
2022-08-18T03:01:41.792Z,17.26
2022-08-18T03:06:44.239Z,17.24
2022-08-18T03:11:45.216Z,17.17
2022-08-18T03:16:53.203Z,17.14
2022-08-18T03:21:48.504Z,17.06
2022-08-18T03:26:50.238Z,17
2022-08-18T03:31:51.597Z,16.94
2022-08-18T03:36:53.532Z,16.87
2022-08-18T03:41:57.795Z,16.81
2022-08-18T03:46:56.705Z,16.75
2022-08-18T03:51:58.532Z,16.66
2022-08-18T03:56:59.819Z,16.62
2022-08-18T04:02:01.510Z,16.52
2022-08-18T04:07:03.454Z,16.45
2022-08-18T04:12:05.525Z,16.44
2022-08-18T04:17:07.122Z,16.39
2022-08-18T04:22:08.377Z,16.36
2022-08-18T04:27:09.799Z,16.34
2022-08-18T04:32:11.177Z,16.32
2022-08-18T04:37:13.250Z,16.33
2022-08-18T04:42:14.691Z,16.31
2022-08-18T04:47:16.871Z,16.31
2022-08-18T04:52:21.954Z,16.31
2022-08-18T04:57:19.543Z,16.34
2022-08-18T05:02:21.117Z,16.37
2022-08-18T05:07:22.293Z,16.39
2022-08-18T05:12:25.751Z,16.4
2022-08-18T05:17:25.390Z,16.45
2022-08-18T05:22:27.809Z,16.54
2022-08-18T05:27:36.947Z,16.65
2022-08-18T05:32:46.679Z,16.71
2022-08-18T05:37:31.819Z,16.84
2022-08-18T05:42:33.890Z,17.02
2022-08-18T05:47:35.716Z,17.17
2022-08-18T05:52:37.707Z,17.34
2022-08-18T05:57:39.461Z,17.52
2022-08-18T06:02:41.459Z,17.65
2022-08-18T06:07:43.477Z,17.79
2022-08-18T06:12:47.030Z,17.95
2022-08-18T06:17:47.463Z,18.12
2022-08-18T06:22:52.480Z,18.24
2022-08-18T06:27:50.268Z,18.35
2022-08-18T06:32:52.073Z,18.45
2022-08-18T06:37:54.145Z,18.54
2022-08-18T06:42:55.334Z,18.62
2022-08-18T06:47:57.410Z,18.69
2022-08-18T06:52:58.621Z,18.76
2022-08-18T06:58:00.083Z,18.86
2022-08-18T07:03:02.126Z,18.93
2022-08-18T07:08:04.046Z,19
2022-08-18T07:13:05.484Z,19.08
2022-08-18T07:18:06.748Z,19.12
2022-08-18T07:23:08.579Z,19.12
2022-08-18T07:28:10.664Z,19.25
2022-08-18T07:33:12.393Z,19.37
2022-08-18T07:38:38.929Z,19.44
2022-08-18T07:43:16.385Z,19.37
2022-08-18T07:48:40.497Z,19.64
2022-08-18T07:53:19.916Z,20.06
2022-08-18T08:53:38.645Z,22.19
2022-08-18T09:03:50.960Z,22.7
2022-08-18T09:13:45.069Z,23.18
2022-08-18T09:18:46.311Z,23.55
2022-08-18T09:33:51.902Z,24.49
2022-08-18T09:38:54.053Z,24.71
2022-08-18T09:43:55.752Z,25.07
2022-08-18T09:48:57.126Z,25.09
2022-08-18T09:53:58.523Z,25.02
2022-08-18T09:59:00.612Z,24.82
2022-08-18T10:04:02.630Z,25.04
2022-08-18T10:09:14.762Z,25.37
2022-08-18T10:14:05.326Z,25.27
2022-08-18T10:19:06.731Z,24.93
2022-08-18T10:24:31.968Z,25.01
2022-08-18T10:29:09.765Z,25.37
2022-08-18T10:34:16.667Z,25.48
2022-08-18T10:39:12.834Z,25.86
2022-08-18T10:44:28.093Z,26.02
2022-08-18T10:54:18.479Z,26.13
2022-08-18T10:59:19.241Z,26.37
2022-08-18T11:04:22.713Z,26.67
2022-08-18T11:09:23.283Z,26.7
2022-08-18T11:14:25.313Z,26.94
2022-08-18T11:19:26.868Z,26.78
2022-08-18T11:24:28.851Z,26.62
2022-08-18T11:29:32.110Z,26.3
2022-08-18T11:34:32.547Z,26.34
2022-08-18T11:39:37.806Z,26.04
2022-08-18T11:44:36.192Z,26.26
2022-08-18T11:49:37.850Z,26.39
2022-08-18T11:54:39.130Z,26.68
2022-08-18T11:59:54.089Z,26.29
2022-08-18T12:04:41.857Z,26.19
2022-08-18T12:14:45.969Z,26.49
2022-08-18T12:19:47.506Z,26.41
2022-08-18T12:24:49.147Z,26.71
2022-08-18T12:24:55.580Z,26.71
2022-08-18T12:29:57.763Z,26.17
2022-08-18T12:35:03.592Z,25.85
2022-08-18T12:40:00.735Z,25.99
2022-08-18T12:45:02.495Z,26.15
2022-08-18T12:50:04.396Z,26.48
2022-08-18T12:55:05.638Z,26.6
2022-08-18T13:00:06.884Z,26.79
2022-08-18T13:05:08.914Z,26.85
2022-08-18T13:10:21.712Z,26.61
2022-08-18T13:15:12.625Z,26.56
2022-08-18T13:20:14.087Z,26.66
2022-08-18T13:25:29.003Z,26.65
2022-08-18T13:30:30.752Z,26.8
2022-08-18T13:35:18.902Z,26.84
2022-08-18T13:40:20.656Z,26.9
2022-08-18T13:45:25.446Z,26.82
2022-08-18T13:50:29.850Z,26.68
2022-08-18T13:55:25.656Z,26.61
2022-08-18T14:00:30.459Z,26.47
2022-08-18T14:05:37.020Z,26.41
2022-08-18T14:10:30.973Z,26.35
2022-08-18T14:15:33.061Z,26.24
2022-08-18T14:20:34.393Z,26.3
2022-08-18T14:25:36.016Z,26.32
2022-08-18T14:30:37.319Z,26.25
2022-08-18T14:36:04.757Z,26.23
2022-08-18T14:40:41.906Z,26.24
2022-08-18T14:45:42.663Z,26.22
2022-08-18T14:50:44.808Z,26.21
2022-08-18T14:55:46.342Z,26.27
2022-08-18T15:00:50.023Z,26.32
2022-08-18T15:05:49.319Z,26.29
2022-08-18T15:10:51.123Z,26.35
2022-08-18T15:15:52.666Z,26.36
2022-08-18T15:20:54.461Z,26.27
2022-08-18T15:25:56.415Z,26.26
2022-08-18T15:35:58.725Z,26.19
2022-08-18T15:41:01.025Z,26.13
2022-08-18T15:46:03.624Z,26.08
2022-08-18T15:51:06.216Z,26
2022-08-18T15:56:06.129Z,25.98
2022-08-18T16:01:21.029Z,25.99
2022-08-18T16:06:09.453Z,25.93
2022-08-18T16:11:11.313Z,25.56
2022-08-18T16:16:13.004Z,25.51
2022-08-18T16:21:14.570Z,25.42
2022-08-18T16:31:17.589Z,24.99
2022-08-18T16:36:19.720Z,24.98
2022-08-18T16:41:21.030Z,24.91
2022-08-18T16:46:22.242Z,24.88
2022-08-18T16:51:23.488Z,24.84
2022-08-18T16:56:25.253Z,24.78
2022-08-18T17:01:26.801Z,24.72
2022-08-18T17:06:28.548Z,24.65
2022-08-18T17:11:29.998Z,24.58
2022-08-18T17:16:31.381Z,24.5
2022-08-18T17:26:34.486Z,24.25
2022-08-18T17:31:36.182Z,24.1
2022-08-18T17:36:39.166Z,23.91
2022-08-18T17:41:40.160Z,23.8
2022-08-18T17:46:41.668Z,23.67
2022-08-18T17:51:43.617Z,23.53
2022-08-18T17:56:44.987Z,23.41
2022-08-18T18:01:47.211Z,23.05
2022-08-18T18:06:49.459Z,22.54
2022-08-18T18:11:50.997Z,21.91
2022-08-18T18:16:52.342Z,21.57
2022-08-18T18:22:01.568Z,20.99
2022-08-18T18:26:55.364Z,20.63
2022-08-18T18:31:58.437Z,20.25
2022-08-18T18:36:58.808Z,19.89
2022-08-18T18:42:00.490Z,19.67
2022-08-18T18:47:02.320Z,19.48
2022-08-18T18:52:04.188Z,19.31
2022-08-18T18:57:07.060Z,19.23
2022-08-18T19:02:13.576Z,19.16
2022-08-18T19:07:08.629Z,19.08
2022-08-18T19:12:10.832Z,19.01
2022-08-18T19:17:12.966Z,18.96
2022-08-18T19:22:18.317Z,18.96
2022-08-18T19:27:15.583Z,18.99
2022-08-18T19:32:17.218Z,19.01
2022-08-18T19:37:22.709Z,19.03
2022-08-18T19:42:20.022Z,19.04
2022-08-18T19:47:22.452Z,19.06
2022-08-18T19:52:45.445Z,19.06
2022-08-18T19:57:25.645Z,19.06
2022-08-18T20:02:27.661Z,19.04
2022-08-18T20:07:28.818Z,19.04
2022-08-18T20:12:30.850Z,19.01
2022-08-18T20:17:32.131Z,18.95
2022-08-18T20:22:33.422Z,18.92
2022-08-18T20:27:36.139Z,18.87
2022-08-18T20:32:36.837Z,18.82
2022-08-18T20:37:38.173Z,18.75
2022-08-18T20:42:39.421Z,18.68
2022-08-18T20:47:41.064Z,18.65
2022-08-18T20:52:43.255Z,18.6
2022-08-18T20:57:44.746Z,18.54
2022-08-18T21:02:46.158Z,18.45
2022-08-18T21:07:48.289Z,18.39
2022-08-18T21:12:51.574Z,18.35
2022-08-18T21:17:55.095Z,18.33
2022-08-18T21:22:53.253Z,18.32
2022-08-18T21:27:55.050Z,18.31
2022-08-18T21:32:56.254Z,18.33
2022-08-18T21:37:57.597Z,18.34
2022-08-18T21:42:59.021Z,18.34
2022-08-18T21:48:00.345Z,18.34
2022-08-18T21:53:01.552Z,18.31
2022-08-18T21:58:03.276Z,18.29
2022-08-18T22:13:08.077Z,18.15
2022-08-18T22:18:09.396Z,18.09
2022-08-18T22:23:11.357Z,18.02
2022-08-18T22:28:13.038Z,18
2022-08-18T22:33:14.978Z,17.95
2022-08-18T22:38:16.202Z,17.87
2022-08-18T22:43:17.932Z,17.82
2022-08-18T22:48:19.289Z,17.74
2022-08-18T22:53:21.416Z,17.67
2022-08-18T23:33:34.954Z,17.29
2022-08-18T23:38:36.656Z,17.28
2022-08-18T23:48:40.120Z,17.28
2022-08-18T23:53:41.601Z,17.29
2022-08-18T23:58:43.164Z,17.33
